sensor_id;sensor_type;location;lat;lon;timestamp;pressure;altitude;pressure_sealevel;temperature
65823;BMP180;52585;47.566;19.056;2023-04-03T00:01:29;100239.80;;;7.70
65823;BMP180;52585;47.566;19.056;2023-04-03T00:03:55;100232.80;;;7.70
65823;BMP180;52585;47.566;19.056;2023-04-03T00:06:22;100242.00;;;7.70
65823;BMP180;52585;47.566;19.056;2023-04-03T00:08:48;100238.00;;;7.60
65823;BMP180;52585;47.566;19.056;2023-04-03T00:11:14;100242.20;;;7.60
65823;BMP180;52585;47.566;19.056;2023-04-03T00:13:40;100240.80;;;7.60
65823;BMP180;52585;47.566;19.056;2023-04-03T00:16:09;100240.80;;;7.60
65823;BMP180;52585;47.566;19.056;2023-04-03T00:18:35;100243.00;;;7.60
65823;BMP180;52585;47.566;19.056;2023-04-03T00:21:01;100240.00;;;7.60
65823;BMP180;52585;47.566;19.056;2023-04-03T00:23:55;100239.80;;;7.60
65823;BMP180;52585;47.566;19.056;2023-04-03T00:26:20;100241.20;;;7.60
65823;BMP180;52585;47.566;19.056;2023-04-03T00:28:48;100241.40;;;7.50
65823;BMP180;52585;47.566;19.056;2023-04-03T00:31:26;100242.60;;;7.50
65823;BMP180;52585;47.566;19.056;2023-04-03T00:33:51;100243.20;;;7.50
65823;BMP180;52585;47.566;19.056;2023-04-03T00:36:17;100242.20;;;7.50
65823;BMP180;52585;47.566;19.056;2023-04-03T00:38:42;100240.00;;;7.48
65823;BMP180;52585;47.566;19.056;2023-04-03T00:41:08;100243.40;;;7.40
65823;BMP180;52585;47.566;19.056;2023-04-03T00:43:34;100247.20;;;7.40
65823;BMP180;52585;47.566;19.056;2023-04-03T00:46:00;100254.20;;;7.40
65823;BMP180;52585;47.566;19.056;2023-04-03T00:48:41;100252.20;;;7.40
65823;BMP180;52585;47.566;19.056;2023-04-03T00:51:14;100247.40;;;7.40
65823;BMP180;52585;47.566;19.056;2023-04-03T00:53:47;100250.80;;;7.40
65823;BMP180;52585;47.566;19.056;2023-04-03T00:56:16;100250.00;;;7.40
65823;BMP180;52585;47.566;19.056;2023-04-03T00:58:52;100250.20;;;7.40
65823;BMP180;52585;47.566;19.056;2023-04-03T01:01:24;100255.00;;;7.40
65823;BMP180;52585;47.566;19.056;2023-04-03T01:03:50;100252.20;;;7.40
65823;BMP180;52585;47.566;19.056;2023-04-03T01:06:21;100256.40;;;7.36
65823;BMP180;52585;47.566;19.056;2023-04-03T01:08:50;100259.00;;;7.34
65823;BMP180;52585;47.566;19.056;2023-04-03T01:11:16;100258.80;;;7.40
65823;BMP180;52585;47.566;19.056;2023-04-03T01:13:42;100263.00;;;7.40
65823;BMP180;52585;47.566;19.056;2023-04-03T01:16:08;100268.40;;;7.40
65823;BMP180;52585;47.566;19.056;2023-04-03T01:18:38;100261.60;;;7.40
65823;BMP180;52585;47.566;19.056;2023-04-03T01:24:25;100260.80;;;7.40
65823;BMP180;52585;47.566;19.056;2023-04-03T01:26:52;100265.20;;;7.40
65823;BMP180;52585;47.566;19.056;2023-04-03T01:29:18;100262.80;;;7.36
65823;BMP180;52585;47.566;19.056;2023-04-03T01:31:59;100256.60;;;7.38
65823;BMP180;52585;47.566;19.056;2023-04-03T01:34:28;100255.80;;;7.40
65823;BMP180;52585;47.566;19.056;2023-04-03T01:36:54;100253.20;;;7.40
65823;BMP180;52585;47.566;19.056;2023-04-03T01:39:20;100258.00;;;7.40
65823;BMP180;52585;47.566;19.056;2023-04-03T01:41:47;100255.00;;;7.32
65823;BMP180;52585;47.566;19.056;2023-04-03T01:44:12;100255.00;;;7.30
65823;BMP180;52585;47.566;19.056;2023-04-03T01:46:38;100256.00;;;7.30
65823;BMP180;52585;47.566;19.056;2023-04-03T01:49:04;100258.20;;;7.30
65823;BMP180;52585;47.566;19.056;2023-04-03T01:51:30;100258.80;;;7.20
65823;BMP180;52585;47.566;19.056;2023-04-03T01:53:56;100265.20;;;7.20
65823;BMP180;52585;47.566;19.056;2023-04-03T01:56:22;100262.20;;;7.16
65823;BMP180;52585;47.566;19.056;2023-04-03T01:58:48;100264.20;;;7.10
65823;BMP180;52585;47.566;19.056;2023-04-03T02:01:13;100274.80;;;7.10
65823;BMP180;52585;47.566;19.056;2023-04-03T02:03:39;100277.40;;;7.10
65823;BMP180;52585;47.566;19.056;2023-04-03T02:06:05;100277.60;;;7.04
65823;BMP180;52585;47.566;19.056;2023-04-03T02:08:31;100276.00;;;7.00
65823;BMP180;52585;47.566;19.056;2023-04-03T02:10:56;100280.80;;;7.00
65823;BMP180;52585;47.566;19.056;2023-04-03T02:13:22;100280.60;;;6.92
65823;BMP180;52585;47.566;19.056;2023-04-03T02:15:47;100279.40;;;6.90
65823;BMP180;52585;47.566;19.056;2023-04-03T02:18:14;100282.00;;;6.90
65823;BMP180;52585;47.566;19.056;2023-04-03T02:20:40;100279.80;;;6.90
65823;BMP180;52585;47.566;19.056;2023-04-03T02:23:06;100281.20;;;6.90
65823;BMP180;52585;47.566;19.056;2023-04-03T02:25:32;100283.00;;;6.84
65823;BMP180;52585;47.566;19.056;2023-04-03T02:27:58;100287.20;;;6.80
65823;BMP180;52585;47.566;19.056;2023-04-03T02:30:24;100286.40;;;6.80
65823;BMP180;52585;47.566;19.056;2023-04-03T02:32:50;100289.00;;;6.80
65823;BMP180;52585;47.566;19.056;2023-04-03T02:35:16;100286.80;;;6.80
65823;BMP180;52585;47.566;19.056;2023-04-03T02:37:41;100293.60;;;6.80
65823;BMP180;52585;47.566;19.056;2023-04-03T02:40:08;100292.00;;;6.80
65823;BMP180;52585;47.566;19.056;2023-04-03T02:42:34;100288.00;;;6.80
65823;BMP180;52585;47.566;19.056;2023-04-03T02:44:59;100293.80;;;6.80
65823;BMP180;52585;47.566;19.056;2023-04-03T02:47:28;100286.80;;;6.80
65823;BMP180;52585;47.566;19.056;2023-04-03T02:49:54;100289.20;;;6.70
65823;BMP180;52585;47.566;19.056;2023-04-03T02:52:19;100288.40;;;6.70
65823;BMP180;52585;47.566;19.056;2023-04-03T02:54:45;100287.60;;;6.68
65823;BMP180;52585;47.566;19.056;2023-04-03T02:57:11;100288.00;;;6.60
65823;BMP180;52585;47.566;19.056;2023-04-03T02:59:37;100292.20;;;6.60
65823;BMP180;52585;47.566;19.056;2023-04-03T03:02:09;100294.20;;;6.50
65823;BMP180;52585;47.566;19.056;2023-04-03T03:04:35;100292.00;;;6.50
65823;BMP180;52585;47.566;19.056;2023-04-03T03:07:01;100289.40;;;6.50
65823;BMP180;52585;47.566;19.056;2023-04-03T03:09:27;100289.80;;;6.50
65823;BMP180;52585;47.566;19.056;2023-04-03T03:11:53;100289.00;;;6.50
65823;BMP180;52585;47.566;19.056;2023-04-03T03:14:18;100284.40;;;6.44
65823;BMP180;52585;47.566;19.056;2023-04-03T03:16:44;100289.20;;;6.40
65823;BMP180;52585;47.566;19.056;2023-04-03T03:19:09;100293.60;;;6.40
65823;BMP180;52585;47.566;19.056;2023-04-03T03:21:35;100290.60;;;6.40
65823;BMP180;52585;47.566;19.056;2023-04-03T03:24:01;100294.60;;;6.40
65823;BMP180;52585;47.566;19.056;2023-04-03T03:26:26;100300.00;;;6.40
65823;BMP180;52585;47.566;19.056;2023-04-03T03:28:52;100298.60;;;6.40
65823;BMP180;52585;47.566;19.056;2023-04-03T03:31:17;100297.60;;;6.40
65823;BMP180;52585;47.566;19.056;2023-04-03T03:33:43;100297.20;;;6.40
65823;BMP180;52585;47.566;19.056;2023-04-03T03:36:09;100299.20;;;6.46
65823;BMP180;52585;47.566;19.056;2023-04-03T03:38:36;100297.80;;;6.48
65823;BMP180;52585;47.566;19.056;2023-04-03T03:41:02;100297.20;;;6.42
65823;BMP180;52585;47.566;19.056;2023-04-03T03:43:28;100296.00;;;6.40
65823;BMP180;52585;47.566;19.056;2023-04-03T03:45:54;100300.40;;;6.40
65823;BMP180;52585;47.566;19.056;2023-04-03T03:48:21;100298.00;;;6.40
65823;BMP180;52585;47.566;19.056;2023-04-03T03:50:48;100296.00;;;6.40
65823;BMP180;52585;47.566;19.056;2023-04-03T03:53:14;100297.80;;;6.38
65823;BMP180;52585;47.566;19.056;2023-04-03T03:55:41;100299.40;;;6.30
65823;BMP180;52585;47.566;19.056;2023-04-03T03:58:07;100298.00;;;6.30
65823;BMP180;52585;47.566;19.056;2023-04-03T04:00:33;100298.80;;;6.30
65823;BMP180;52585;47.566;19.056;2023-04-03T04:02:58;100298.60;;;6.20
65823;BMP180;52585;47.566;19.056;2023-04-03T04:05:24;100304.20;;;6.20
65823;BMP180;52585;47.566;19.056;2023-04-03T04:07:50;100306.40;;;6.20
65823;BMP180;52585;47.566;19.056;2023-04-03T04:10:16;100307.60;;;6.12
65823;BMP180;52585;47.566;19.056;2023-04-03T04:12:41;100301.80;;;6.10
65823;BMP180;52585;47.566;19.056;2023-04-03T04:15:08;100301.00;;;6.00
65823;BMP180;52585;47.566;19.056;2023-04-03T04:17:34;100296.40;;;5.96
65823;BMP180;52585;47.566;19.056;2023-04-03T04:20:02;100301.40;;;5.90
65823;BMP180;52585;47.566;19.056;2023-04-03T04:22:28;100300.80;;;5.90
65823;BMP180;52585;47.566;19.056;2023-04-03T04:24:53;100311.20;;;5.80
65823;BMP180;52585;47.566;19.056;2023-04-03T04:27:19;100314.00;;;5.70
65823;BMP180;52585;47.566;19.056;2023-04-03T04:29:45;100318.40;;;5.70
65823;BMP180;52585;47.566;19.056;2023-04-03T04:32:10;100319.20;;;5.60
65823;BMP180;52585;47.566;19.056;2023-04-03T04:34:36;100320.20;;;5.60
65823;BMP180;52585;47.566;19.056;2023-04-03T04:37:01;100317.80;;;5.50
65823;BMP180;52585;47.566;19.056;2023-04-03T04:39:27;100321.00;;;5.50
65823;BMP180;52585;47.566;19.056;2023-04-03T04:41:52;100319.80;;;5.50
65823;BMP180;52585;47.566;19.056;2023-04-03T04:44:18;100325.00;;;5.50
65823;BMP180;52585;47.566;19.056;2023-04-03T04:46:44;100322.20;;;5.50
65823;BMP180;52585;47.566;19.056;2023-04-03T04:49:09;100329.40;;;5.50
65823;BMP180;52585;47.566;19.056;2023-04-03T04:51:35;100334.60;;;5.58
65823;BMP180;52585;47.566;19.056;2023-04-03T04:54:01;100318.40;;;5.50
65823;BMP180;52585;47.566;19.056;2023-04-03T04:56:26;100321.00;;;5.50
65823;BMP180;52585;47.566;19.056;2023-04-03T04:58:52;100322.40;;;5.50
65823;BMP180;52585;47.566;19.056;2023-04-03T05:01:17;100322.40;;;5.50
65823;BMP180;52585;47.566;19.056;2023-04-03T05:03:44;100327.20;;;5.50
65823;BMP180;52585;47.566;19.056;2023-04-03T05:06:09;100321.40;;;5.50
65823;BMP180;52585;47.566;19.056;2023-04-03T05:08:35;100330.20;;;5.50
65823;BMP180;52585;47.566;19.056;2023-04-03T05:11:01;100331.00;;;5.50
65823;BMP180;52585;47.566;19.056;2023-04-03T05:13:27;100333.80;;;5.50
65823;BMP180;52585;47.566;19.056;2023-04-03T05:15:52;100338.00;;;5.46
65823;BMP180;52585;47.566;19.056;2023-04-03T05:18:18;100342.00;;;5.44
65823;BMP180;52585;47.566;19.056;2023-04-03T05:20:43;100339.20;;;5.40
65823;BMP180;52585;47.566;19.056;2023-04-03T05:23:10;100348.60;;;5.42
65823;BMP180;52585;47.566;19.056;2023-04-03T05:25:39;100351.00;;;5.44
65823;BMP180;52585;47.566;19.056;2023-04-03T05:28:06;100354.80;;;5.48
65823;BMP180;52585;47.566;19.056;2023-04-03T05:30:32;100351.20;;;5.50
65823;BMP180;52585;47.566;19.056;2023-04-03T05:32:59;100351.20;;;5.48
65823;BMP180;52585;47.566;19.056;2023-04-03T05:35:24;100353.40;;;5.44
65823;BMP180;52585;47.566;19.056;2023-04-03T05:37:50;100348.20;;;5.40
65823;BMP180;52585;47.566;19.056;2023-04-03T05:40:16;100352.00;;;5.50
65823;BMP180;52585;47.566;19.056;2023-04-03T05:42:43;100350.40;;;5.50
65823;BMP180;52585;47.566;19.056;2023-04-03T05:45:10;100352.00;;;5.50
65823;BMP180;52585;47.566;19.056;2023-04-03T05:47:35;100349.80;;;5.50
65823;BMP180;52585;47.566;19.056;2023-04-03T05:50:01;100350.20;;;5.50
65823;BMP180;52585;47.566;19.056;2023-04-03T05:52:33;100351.80;;;5.50
65823;BMP180;52585;47.566;19.056;2023-04-03T05:55:00;100352.00;;;5.50
65823;BMP180;52585;47.566;19.056;2023-04-03T05:57:26;100355.20;;;5.60
65823;BMP180;52585;47.566;19.056;2023-04-03T05:59:52;100353.40;;;5.66
65823;BMP180;52585;47.566;19.056;2023-04-03T06:02:21;100361.00;;;5.70
65823;BMP180;52585;47.566;19.056;2023-04-03T06:04:47;100364.40;;;5.70
65823;BMP180;52585;47.566;19.056;2023-04-03T06:07:17;100358.60;;;5.78
65823;BMP180;52585;47.566;19.056;2023-04-03T06:09:43;100361.80;;;5.80
65823;BMP180;52585;47.566;19.056;2023-04-03T06:12:09;100363.00;;;5.90
65823;BMP180;52585;47.566;19.056;2023-04-03T06:14:36;100363.60;;;5.98
65823;BMP180;52585;47.566;19.056;2023-04-03T06:17:03;100366.80;;;6.10
65823;BMP180;52585;47.566;19.056;2023-04-03T06:19:29;100364.00;;;6.20
65823;BMP180;52585;47.566;19.056;2023-04-03T06:21:55;100365.80;;;6.30
65823;BMP180;52585;47.566;19.056;2023-04-03T06:24:21;100364.60;;;6.34
65823;BMP180;52585;47.566;19.056;2023-04-03T06:26:50;100369.40;;;6.40
65823;BMP180;52585;47.566;19.056;2023-04-03T06:29:17;100371.40;;;6.52
65823;BMP180;52585;47.566;19.056;2023-04-03T06:31:43;100367.00;;;6.62
65823;BMP180;52585;47.566;19.056;2023-04-03T06:34:09;100368.40;;;6.72
65823;BMP180;52585;47.566;19.056;2023-04-03T06:36:37;100364.20;;;6.84
65823;BMP180;52585;47.566;19.056;2023-04-03T06:39:03;100365.20;;;6.90
65823;BMP180;52585;47.566;19.056;2023-04-03T06:41:29;100373.60;;;7.00
65823;BMP180;52585;47.566;19.056;2023-04-03T06:43:54;100367.00;;;7.10
65823;BMP180;52585;47.566;19.056;2023-04-03T06:46:23;100374.40;;;7.18
65823;BMP180;52585;47.566;19.056;2023-04-03T06:48:49;100371.20;;;7.30
65823;BMP180;52585;47.566;19.056;2023-04-03T06:51:21;100371.80;;;7.40
65823;BMP180;52585;47.566;19.056;2023-04-03T06:53:50;100380.60;;;7.44
65823;BMP180;52585;47.566;19.056;2023-04-03T06:56:16;100376.00;;;7.50
65823;BMP180;52585;47.566;19.056;2023-04-03T06:58:43;100383.40;;;7.60
65823;BMP180;52585;47.566;19.056;2023-04-03T07:01:11;100382.60;;;7.70
65823;BMP180;52585;47.566;19.056;2023-04-03T07:03:38;100387.40;;;7.80
65823;BMP180;52585;47.566;19.056;2023-04-03T07:06:05;100388.60;;;7.80
65823;BMP180;52585;47.566;19.056;2023-04-03T07:08:33;100397.40;;;7.84
65823;BMP180;52585;47.566;19.056;2023-04-03T07:10:59;100401.20;;;7.90
65823;BMP180;52585;47.566;19.056;2023-04-03T07:13:24;100405.20;;;7.90
65823;BMP180;52585;47.566;19.056;2023-04-03T07:15:50;100400.40;;;7.90
65823;BMP180;52585;47.566;19.056;2023-04-03T07:18:16;100403.00;;;8.00
65823;BMP180;52585;47.566;19.056;2023-04-03T07:20:45;100402.60;;;8.00
65823;BMP180;52585;47.566;19.056;2023-04-03T07:23:11;100408.00;;;8.00
65823;BMP180;52585;47.566;19.056;2023-04-03T07:25:42;100408.60;;;8.00
65823;BMP180;52585;47.566;19.056;2023-04-03T07:28:08;100409.20;;;8.04
65823;BMP180;52585;47.566;19.056;2023-04-03T07:30:34;100410.80;;;8.08
65823;BMP180;52585;47.566;19.056;2023-04-03T07:33:00;100412.00;;;8.10
65823;BMP180;52585;47.566;19.056;2023-04-03T07:35:26;100414.80;;;8.10
65823;BMP180;52585;47.566;19.056;2023-04-03T07:37:52;100416.00;;;8.20
65823;BMP180;52585;47.566;19.056;2023-04-03T07:40:18;100410.20;;;8.20
65823;BMP180;52585;47.566;19.056;2023-04-03T07:42:44;100416.80;;;8.20
65823;BMP180;52585;47.566;19.056;2023-04-03T07:45:10;100415.60;;;8.14
65823;BMP180;52585;47.566;19.056;2023-04-03T07:47:36;100412.00;;;8.20
65823;BMP180;52585;47.566;19.056;2023-04-03T07:50:02;100414.00;;;8.22
65823;BMP180;52585;47.566;19.056;2023-04-03T07:52:27;100424.00;;;8.30
65823;BMP180;52585;47.566;19.056;2023-04-03T07:54:53;100424.80;;;8.30
65823;BMP180;52585;47.566;19.056;2023-04-03T07:57:18;100421.40;;;8.40
65823;BMP180;52585;47.566;19.056;2023-04-03T07:59:44;100417.80;;;8.40
65823;BMP180;52585;47.566;19.056;2023-04-03T08:02:10;100416.40;;;8.48
65823;BMP180;52585;47.566;19.056;2023-04-03T08:04:36;100417.00;;;8.50
65823;BMP180;52585;47.566;19.056;2023-04-03T08:07:01;100417.80;;;8.60
65823;BMP180;52585;47.566;19.056;2023-04-03T08:09:27;100423.40;;;8.60
65823;BMP180;52585;47.566;19.056;2023-04-03T08:11:53;100424.00;;;8.70
65823;BMP180;52585;47.566;19.056;2023-04-03T08:14:19;100424.80;;;8.80
65823;BMP180;52585;47.566;19.056;2023-04-03T08:16:47;100422.60;;;8.80
65823;BMP180;52585;47.566;19.056;2023-04-03T08:19:14;100426.00;;;8.80
65823;BMP180;52585;47.566;19.056;2023-04-03T08:21:42;100427.00;;;8.90
65823;BMP180;52585;47.566;19.056;2023-04-03T08:24:09;100424.20;;;8.90
65823;BMP180;52585;47.566;19.056;2023-04-03T08:26:35;100428.00;;;8.90
65823;BMP180;52585;47.566;19.056;2023-04-03T08:29:01;100430.20;;;9.00
65823;BMP180;52585;47.566;19.056;2023-04-03T08:31:28;100433.80;;;9.08
65823;BMP180;52585;47.566;19.056;2023-04-03T08:33:53;100435.00;;;9.10
65823;BMP180;52585;47.566;19.056;2023-04-03T08:36:25;100436.20;;;9.20
65823;BMP180;52585;47.566;19.056;2023-04-03T08:38:53;100436.80;;;9.20
65823;BMP180;52585;47.566;19.056;2023-04-03T08:41:42;100440.60;;;9.20
65823;BMP180;52585;47.566;19.056;2023-04-03T08:47:24;100438.60;;;9.30
65823;BMP180;52585;47.566;19.056;2023-04-03T08:49:59;100440.80;;;9.30
65823;BMP180;52585;47.566;19.056;2023-04-03T08:55:26;100439.80;;;9.30
65823;BMP180;52585;47.566;19.056;2023-04-03T08:58:30;100437.60;;;9.30
65823;BMP180;52585;47.566;19.056;2023-04-03T09:01:23;100433.80;;;9.40
65823;BMP180;52585;47.566;19.056;2023-04-03T09:03:50;100436.40;;;9.50
65823;BMP180;52585;47.566;19.056;2023-04-03T09:06:26;100434.80;;;9.50
65823;BMP180;52585;47.566;19.056;2023-04-03T09:09:31;100431.20;;;9.52
65823;BMP180;52585;47.566;19.056;2023-04-03T09:12:25;100438.80;;;9.60
65823;BMP180;52585;47.566;19.056;2023-04-03T09:15:20;100436.40;;;9.70
65823;BMP180;52585;47.566;19.056;2023-04-03T09:17:57;100436.80;;;9.70
65823;BMP180;52585;47.566;19.056;2023-04-03T09:23:45;100436.40;;;9.90
65823;BMP180;52585;47.566;19.056;2023-04-03T09:26:25;100431.40;;;10.00
65823;BMP180;52585;47.566;19.056;2023-04-03T09:28:59;100437.00;;;10.10
65823;BMP180;52585;47.566;19.056;2023-04-03T09:31:42;100434.40;;;10.20
65823;BMP180;52585;47.566;19.056;2023-04-03T09:34:23;100436.20;;;10.30
65823;BMP180;52585;47.566;19.056;2023-04-03T09:36:57;100441.00;;;10.40
65823;BMP180;52585;47.566;19.056;2023-04-03T09:39:25;100436.00;;;10.44
65823;BMP180;52585;47.566;19.056;2023-04-03T09:42:00;100434.80;;;10.40
65823;BMP180;52585;47.566;19.056;2023-04-03T09:44:36;100439.60;;;10.40
65823;BMP180;52585;47.566;19.056;2023-04-03T09:47:36;100437.20;;;10.40
65823;BMP180;52585;47.566;19.056;2023-04-03T09:52:46;100437.00;;;10.30
65823;BMP180;52585;47.566;19.056;2023-04-03T09:55:17;100434.40;;;10.26
65823;BMP180;52585;47.566;19.056;2023-04-03T09:57:45;100436.80;;;10.28
65823;BMP180;52585;47.566;19.056;2023-04-03T10:00:26;100438.80;;;10.30
65823;BMP180;52585;47.566;19.056;2023-04-03T10:02:57;100435.80;;;10.30
65823;BMP180;52585;47.566;19.056;2023-04-03T10:05:46;100436.80;;;10.20
65823;BMP180;52585;47.566;19.056;2023-04-03T10:08:21;100434.60;;;10.26
65823;BMP180;52585;47.566;19.056;2023-04-03T10:11:25;100435.60;;;10.30
65823;BMP180;52585;47.566;19.056;2023-04-03T10:13:54;100434.20;;;10.30
65823;BMP180;52585;47.566;19.056;2023-04-03T10:16:32;100434.80;;;10.38
65823;BMP180;52585;47.566;19.056;2023-04-03T10:22:10;100437.40;;;10.40
65823;BMP180;52585;47.566;19.056;2023-04-03T10:33:56;100440.20;;;10.30
65823;BMP180;52585;47.566;19.056;2023-04-03T10:42:43;100436.80;;;10.40
65823;BMP180;52585;47.566;19.056;2023-04-03T10:45:32;100433.60;;;10.40
65823;BMP180;52585;47.566;19.056;2023-04-03T10:51:17;100434.00;;;10.40
65823;BMP180;52585;47.566;19.056;2023-04-03T10:56:35;100427.40;;;10.44
65823;BMP180;52585;47.566;19.056;2023-04-03T10:59:18;100427.40;;;10.50
65823;BMP180;52585;47.566;19.056;2023-04-03T11:01:55;100431.00;;;10.50
65823;BMP180;52585;47.566;19.056;2023-04-03T11:04:27;100428.60;;;10.42
65823;BMP180;52585;47.566;19.056;2023-04-03T11:07:24;100424.40;;;10.50
65823;BMP180;52585;47.566;19.056;2023-04-03T11:10:17;100429.80;;;10.50
65823;BMP180;52585;47.566;19.056;2023-04-03T11:15:38;100431.80;;;10.50
65823;BMP180;52585;47.566;19.056;2023-04-03T11:18:13;100430.60;;;10.50
65823;BMP180;52585;47.566;19.056;2023-04-03T11:20:56;100427.20;;;10.44
65823;BMP180;52585;47.566;19.056;2023-04-03T11:23:30;100425.60;;;10.50
65823;BMP180;52585;47.566;19.056;2023-04-03T11:26:12;100429.40;;;10.50
65823;BMP180;52585;47.566;19.056;2023-04-03T11:28:39;100425.80;;;10.60
65823;BMP180;52585;47.566;19.056;2023-04-03T11:32:02;100416.80;;;10.60
65823;BMP180;52585;47.566;19.056;2023-04-03T11:34:49;100414.00;;;10.60
65823;BMP180;52585;47.566;19.056;2023-04-03T11:37:29;100411.20;;;10.60
65823;BMP180;52585;47.566;19.056;2023-04-03T11:43:28;100402.20;;;10.60
65823;BMP180;52585;47.566;19.056;2023-04-03T11:46:01;100400.00;;;10.60
65823;BMP180;52585;47.566;19.056;2023-04-03T11:53:44;100397.40;;;10.60
65823;BMP180;52585;47.566;19.056;2023-04-03T12:01:56;100401.60;;;10.60
65823;BMP180;52585;47.566;19.056;2023-04-03T12:04:27;100400.20;;;10.70
65823;BMP180;52585;47.566;19.056;2023-04-03T12:07:18;100400.20;;;10.66
65823;BMP180;52585;47.566;19.056;2023-04-03T12:12:31;100401.40;;;10.60
65823;BMP180;52585;47.566;19.056;2023-04-03T12:15:51;100400.80;;;10.60
65823;BMP180;52585;47.566;19.056;2023-04-03T12:18:46;100395.40;;;10.64
65823;BMP180;52585;47.566;19.056;2023-04-03T12:46:28;100388.20;;;10.54
65823;BMP180;52585;47.566;19.056;2023-04-03T12:48:59;100382.00;;;10.50
65823;BMP180;52585;47.566;19.056;2023-04-03T12:51:41;100384.20;;;10.50
65823;BMP180;52585;47.566;19.056;2023-04-03T12:54:22;100378.40;;;10.60
65823;BMP180;52585;47.566;19.056;2023-04-03T12:56:49;100377.20;;;10.60
65823;BMP180;52585;47.566;19.056;2023-04-03T12:59:22;100380.40;;;10.60
65823;BMP180;52585;47.566;19.056;2023-04-03T13:02:01;100381.60;;;10.70
65823;BMP180;52585;47.566;19.056;2023-04-03T13:04:29;100378.60;;;10.66
65823;BMP180;52585;47.566;19.056;2023-04-03T13:06:57;100375.00;;;10.60
65823;BMP180;52585;47.566;19.056;2023-04-03T13:09:26;100372.20;;;10.68
65823;BMP180;52585;47.566;19.056;2023-04-03T13:12:14;100365.00;;;10.70
65823;BMP180;52585;47.566;19.056;2023-04-03T13:14:40;100366.20;;;10.70
65823;BMP180;52585;47.566;19.056;2023-04-03T13:17:17;100362.40;;;10.70
65823;BMP180;52585;47.566;19.056;2023-04-03T13:19:44;100366.60;;;10.72
65823;BMP180;52585;47.566;19.056;2023-04-03T13:22:32;100359.80;;;10.70
65823;BMP180;52585;47.566;19.056;2023-04-03T13:25:05;100354.80;;;10.80
65823;BMP180;52585;47.566;19.056;2023-04-03T13:27:32;100355.40;;;10.80
65823;BMP180;52585;47.566;19.056;2023-04-03T13:30:01;100352.80;;;10.86
65823;BMP180;52585;47.566;19.056;2023-04-03T13:32:31;100349.20;;;10.88
65823;BMP180;52585;47.566;19.056;2023-04-03T13:34:57;100349.60;;;10.90
65823;BMP180;52585;47.566;19.056;2023-04-03T13:42:34;100352.40;;;11.00
65823;BMP180;52585;47.566;19.056;2023-04-03T13:45:24;100348.60;;;11.00
65823;BMP180;52585;47.566;19.056;2023-04-03T13:48:05;100349.40;;;11.06
65823;BMP180;52585;47.566;19.056;2023-04-03T13:50:32;100344.00;;;11.08
65823;BMP180;52585;47.566;19.056;2023-04-03T13:53:12;100346.60;;;11.10
65823;BMP180;52585;47.566;19.056;2023-04-03T13:58:31;100345.20;;;11.02
65823;BMP180;52585;47.566;19.056;2023-04-03T14:01:16;100338.80;;;11.00
65823;BMP180;52585;47.566;19.056;2023-04-03T14:04:12;100336.00;;;11.00
65823;BMP180;52585;47.566;19.056;2023-04-03T14:06:38;100328.60;;;11.00
65823;BMP180;52585;47.566;19.056;2023-04-03T14:09:04;100325.60;;;11.04
65823;BMP180;52585;47.566;19.056;2023-04-03T14:11:31;100321.60;;;11.00
65823;BMP180;52585;47.566;19.056;2023-04-03T14:14:02;100324.40;;;11.10
65823;BMP180;52585;47.566;19.056;2023-04-03T14:16:37;100316.60;;;11.10
65823;BMP180;52585;47.566;19.056;2023-04-03T14:19:04;100317.00;;;11.10
65823;BMP180;52585;47.566;19.056;2023-04-03T14:21:29;100318.80;;;11.00
65823;BMP180;52585;47.566;19.056;2023-04-03T14:23:55;100318.40;;;11.00
65823;BMP180;52585;47.566;19.056;2023-04-03T14:26:23;100316.40;;;11.00
65823;BMP180;52585;47.566;19.056;2023-04-03T14:28:54;100311.60;;;11.00
65823;BMP180;52585;47.566;19.056;2023-04-03T14:31:22;100316.20;;;11.08
65823;BMP180;52585;47.566;19.056;2023-04-03T14:33:48;100316.40;;;11.02
65823;BMP180;52585;47.566;19.056;2023-04-03T14:36:20;100316.00;;;11.00
65823;BMP180;52585;47.566;19.056;2023-04-03T14:38:47;100318.00;;;11.00
65823;BMP180;52585;47.566;19.056;2023-04-03T14:41:16;100318.80;;;11.00
65823;BMP180;52585;47.566;19.056;2023-04-03T14:43:43;100322.20;;;11.00
65823;BMP180;52585;47.566;19.056;2023-04-03T14:46:17;100319.80;;;11.00
65823;BMP180;52585;47.566;19.056;2023-04-03T14:48:44;100325.40;;;10.96
65823;BMP180;52585;47.566;19.056;2023-04-03T14:51:15;100326.00;;;10.98
65823;BMP180;52585;47.566;19.056;2023-04-03T14:53:43;100325.40;;;11.00
65823;BMP180;52585;47.566;19.056;2023-04-03T14:58:42;100329.00;;;11.00
65823;BMP180;52585;47.566;19.056;2023-04-03T15:01:11;100328.40;;;11.00
65823;BMP180;52585;47.566;19.056;2023-04-03T15:03:39;100327.40;;;11.00
65823;BMP180;52585;47.566;19.056;2023-04-03T15:06:05;100328.60;;;11.00
65823;BMP180;52585;47.566;19.056;2023-04-03T15:08:31;100328.00;;;11.00
65823;BMP180;52585;47.566;19.056;2023-04-03T15:10:57;100332.80;;;11.00
65823;BMP180;52585;47.566;19.056;2023-04-03T15:13:24;100335.80;;;11.00
65823;BMP180;52585;47.566;19.056;2023-04-03T15:15:52;100333.80;;;11.04
65823;BMP180;52585;47.566;19.056;2023-04-03T15:18:22;100329.40;;;11.06
65823;BMP180;52585;47.566;19.056;2023-04-03T15:20:49;100333.80;;;11.00
65823;BMP180;52585;47.566;19.056;2023-04-03T15:23:16;100331.80;;;10.90
65823;BMP180;52585;47.566;19.056;2023-04-03T15:25:48;100329.00;;;10.90
65823;BMP180;52585;47.566;19.056;2023-04-03T15:28:22;100324.40;;;10.80
65823;BMP180;52585;47.566;19.056;2023-04-03T15:30:48;100330.80;;;10.70
65823;BMP180;52585;47.566;19.056;2023-04-03T15:33:14;100317.80;;;10.70
65823;BMP180;52585;47.566;19.056;2023-04-03T15:35:41;100317.80;;;10.60
65823;BMP180;52585;47.566;19.056;2023-04-03T15:38:08;100318.20;;;10.58
65823;BMP180;52585;47.566;19.056;2023-04-03T15:40:33;100323.40;;;10.50
65823;BMP180;52585;47.566;19.056;2023-04-03T15:42:59;100316.40;;;10.42